createdAt,value
2024-01-31T00:00:05.858Z,1126.5820
2024-01-31T00:00:16.949Z,1125.6320
2024-01-31T00:00:28.004Z,1125.6320
2024-01-31T00:00:39.087Z,1124.6840
2024-01-31T00:00:50.183Z,1124.6840
2024-01-31T00:01:01.351Z,1115.2880
2024-01-31T00:01:12.497Z,1127.5341
2024-01-31T00:01:23.808Z,1118.0900
2024-01-31T00:01:35.004Z,1118.0900
2024-01-31T00:01:46.206Z,1121.8490
2024-01-31T00:01:57.330Z,1124.6840
2024-01-31T00:02:08.500Z,1122.7920
2024-01-31T00:02:19.535Z,1125.6320
2024-01-31T00:02:30.602Z,1127.5341
2024-01-31T00:02:41.641Z,1122.7920
2024-01-31T00:02:52.688Z,1122.7920
2024-01-31T00:03:03.785Z,1121.8490
2024-01-31T00:03:14.824Z,1126.5820
2024-01-31T00:03:25.853Z,1125.6320
2024-01-31T00:03:36.914Z,1124.6840
2024-01-31T00:03:47.961Z,1125.6320
2024-01-31T00:03:59.051Z,1124.6840
2024-01-31T00:04:10.320Z,1125.6320
2024-01-31T00:04:21.452Z,1121.8490
2024-01-31T00:04:32.707Z,1122.7920
2024-01-31T00:04:44.061Z,1120.9070
2024-01-31T00:04:55.179Z,1119.9659
2024-01-31T00:05:06.640Z,1120.9070
2024-01-31T00:05:18.063Z,1121.8490
2024-01-31T00:05:29.335Z,1124.6840
2024-01-31T00:05:40.502Z,1117.1550
2024-01-31T00:05:51.617Z,1113.4280
2024-01-31T00:06:02.697Z,1121.8490
2024-01-31T00:06:13.765Z,1127.5341
2024-01-31T00:06:24.861Z,1122.7920
2024-01-31T00:06:35.960Z,1117.1550
2024-01-31T00:06:47.021Z,1119.9659
2024-01-31T00:06:58.196Z,1125.6320
2024-01-31T00:07:10.517Z,1121.8490
2024-01-31T00:07:21.602Z,1121.8490
2024-01-31T00:07:33.074Z,1119.9659
2024-01-31T00:07:44.537Z,1123.7371
2024-01-31T00:07:55.621Z,1112.5000
2024-01-31T00:08:06.669Z,1120.9070
2024-01-31T00:08:17.742Z,1119.9659
2024-01-31T00:08:28.811Z,1118.0900
2024-01-31T00:08:39.891Z,1119.9659
2024-01-31T00:08:50.947Z,1109.7260
2024-01-31T00:09:02.009Z,1118.0900
2024-01-31T00:09:13.049Z,1121.8490
2024-01-31T00:09:24.101Z,1121.8490
2024-01-31T00:09:35.160Z,1114.3571
2024-01-31T00:09:46.238Z,1118.0900
2024-01-31T00:09:57.305Z,1119.9659
2024-01-31T00:10:08.398Z,1106.9650
2024-01-31T00:10:19.602Z,1116.2209
2024-01-31T00:10:30.727Z,1116.2209
2024-01-31T00:10:41.851Z,1110.6490
2024-01-31T00:10:52.967Z,1118.0900
2024-01-31T00:11:04.017Z,1106.9650
2024-01-31T00:11:15.080Z,1118.0900
2024-01-31T00:11:26.125Z,1114.3571
2024-01-31T00:11:37.210Z,1116.2209
2024-01-31T00:11:48.232Z,1116.2209
2024-01-31T00:11:59.300Z,1116.2209
2024-01-31T00:12:10.375Z,1116.2209
2024-01-31T00:12:21.432Z,1106.9650
2024-01-31T00:12:32.494Z,1101.4850
2024-01-31T00:12:43.547Z,1114.3571
2024-01-31T00:12:54.659Z,1117.1550
2024-01-31T00:13:05.716Z,1112.5000
2024-01-31T00:13:16.824Z,1117.1550
2024-01-31T00:13:27.895Z,1106.9650
2024-01-31T00:13:39.075Z,1115.2880
2024-01-31T00:13:50.186Z,1110.6490
2024-01-31T00:14:01.214Z,1114.3571
2024-01-31T00:14:12.249Z,1112.5000
2024-01-31T00:14:23.327Z,1116.2209
2024-01-31T00:14:34.376Z,1112.5000
2024-01-31T00:14:45.435Z,1117.1550
2024-01-31T00:14:56.500Z,1105.1320
2024-01-31T00:15:07.586Z,1104.2180
2024-01-31T00:15:18.610Z,1116.2209
2024-01-31T00:15:29.662Z,1112.5000
2024-01-31T00:15:40.769Z,1112.5000
2024-01-31T00:15:51.800Z,1110.6490
2024-01-31T00:16:02.892Z,1107.8840
2024-01-31T00:16:13.953Z,1107.8840
2024-01-31T00:16:25.006Z,1114.3571
2024-01-31T00:16:36.126Z,1116.2209
2024-01-31T00:16:47.242Z,1111.5740
2024-01-31T00:16:58.284Z,1110.6490
2024-01-31T00:17:09.332Z,1110.6490
2024-01-31T00:17:20.390Z,1107.8840
2024-01-31T00:17:31.403Z,1114.3571
2024-01-31T00:17:42.489Z,1109.7260
2024-01-31T00:17:53.592Z,1107.8840
2024-01-31T00:18:04.729Z,1111.5740
2024-01-31T00:18:15.918Z,1100.5770
2024-01-31T00:18:27.158Z,1111.5740
2024-01-31T00:18:38.362Z,1106.0480
2024-01-31T00:18:49.476Z,1110.6490
2024-01-31T00:19:00.666Z,1097.8621
2024-01-31T00:19:12.147Z,1106.9650
2024-01-31T00:19:23.424Z,1103.3060
2024-01-31T00:19:34.734Z,1106.9650
2024-01-31T00:19:46.098Z,1106.9650
2024-01-31T00:19:57.281Z,1108.8040
2024-01-31T00:20:08.443Z,1108.8040
2024-01-31T00:20:19.559Z,1097.8621
2024-01-31T00:20:30.621Z,1100.5770
2024-01-31T00:20:42.068Z,1106.9650
2024-01-31T00:20:53.144Z,1106.0480
2024-01-31T00:21:04.228Z,1097.8621
2024-01-31T00:21:15.313Z,1101.4850
2024-01-31T00:21:28.338Z,1101.4850
2024-01-31T00:21:39.639Z,1105.1320
2024-01-31T00:21:50.718Z,1102.3950
2024-01-31T00:22:01.866Z,1099.6710
2024-01-31T00:22:12.997Z,1096.0590
2024-01-31T00:22:24.112Z,1096.0590
2024-01-31T00:22:35.281Z,1094.2620
2024-01-31T00:22:46.474Z,1103.3060
2024-01-31T00:22:57.566Z,1105.1320
2024-01-31T00:23:08.627Z,1099.6710
2024-01-31T00:23:19.697Z,1101.4850
2024-01-31T00:23:30.718Z,1105.1320
2024-01-31T00:23:41.799Z,1099.6710
2024-01-31T00:23:52.840Z,1103.3060
2024-01-31T00:24:03.898Z,1090.6860
2024-01-31T00:24:14.960Z,1097.8621
2024-01-31T00:24:26.018Z,1098.7650
2024-01-31T00:24:37.093Z,1109.7260
2024-01-31T00:24:48.135Z,1100.5770
2024-01-31T00:24:59.232Z,1103.3060
2024-01-31T00:25:10.339Z,1097.8621
2024-01-31T00:25:21.493Z,1101.4850
2024-01-31T00:25:32.586Z,1101.4850
2024-01-31T00:25:43.693Z,1101.4850
2024-01-31T00:25:54.721Z,1101.4850
2024-01-31T00:26:05.781Z,1097.8621
2024-01-31T00:26:16.856Z,1096.9600
2024-01-31T00:26:27.918Z,1098.7650
2024-01-31T00:26:38.969Z,1100.5770
2024-01-31T00:26:50.024Z,1099.6710
2024-01-31T00:27:01.114Z,1100.5770
2024-01-31T00:27:12.175Z,1104.2180
2024-01-31T00:27:23.232Z,1103.3060
2024-01-31T00:27:34.289Z,1100.5770
2024-01-31T00:27:45.329Z,1096.0590
2024-01-31T00:27:56.444Z,1092.4709
2024-01-31T00:28:07.519Z,1094.2620
2024-01-31T00:28:18.703Z,1098.7650
2024-01-31T00:28:29.828Z,1097.8621
2024-01-31T00:28:40.980Z,1097.8621
2024-01-31T00:28:52.066Z,1098.7650
2024-01-31T00:29:03.145Z,1099.6710
2024-01-31T00:29:14.224Z,1096.9600
2024-01-31T00:29:25.301Z,1097.8621
2024-01-31T00:29:38.955Z,1096.9600
2024-01-31T00:29:50.430Z,1094.2620
2024-01-31T00:30:01.492Z,1094.2620
2024-01-31T00:30:12.551Z,1096.9600
2024-01-31T00:30:23.598Z,1095.1600
2024-01-31T00:30:34.649Z,1097.8621
2024-01-31T00:30:45.750Z,1090.6860
2024-01-31T00:30:56.815Z,1090.6860
2024-01-31T00:31:07.926Z,1096.0590
2024-01-31T00:31:19.036Z,1095.1600
2024-01-31T00:31:30.156Z,1092.4709
2024-01-31T00:31:41.229Z,1096.0590
2024-01-31T00:31:52.316Z,1096.0590
2024-01-31T00:32:03.354Z,1093.3660
2024-01-31T00:32:14.411Z,1093.3660
2024-01-31T00:32:25.473Z,1085.3660
2024-01-31T00:32:36.576Z,1093.3660
2024-01-31T00:32:47.665Z,1088.9070
2024-01-31T00:32:58.746Z,1087.1340
2024-01-31T00:33:09.867Z,1096.0590
2024-01-31T00:33:20.947Z,1087.1340
2024-01-31T00:33:32.036Z,1094.2620
2024-01-31T00:33:43.109Z,1094.2620
2024-01-31T00:33:54.222Z,1092.4709
2024-01-31T00:34:05.389Z,1092.4709
2024-01-31T00:34:16.652Z,1085.3660
2024-01-31T00:34:27.790Z,1080.9720
2024-01-31T00:34:38.914Z,1089.7960
2024-01-31T00:34:50.007Z,1094.2620
2024-01-31T00:35:01.133Z,1091.5780
2024-01-31T00:35:12.267Z,1089.7960
2024-01-31T00:35:23.354Z,1090.6860
2024-01-31T00:35:34.397Z,1091.5780
2024-01-31T00:35:45.438Z,1090.6860
2024-01-31T00:35:56.511Z,1089.7960
2024-01-31T00:36:07.589Z,1084.4840
2024-01-31T00:36:18.627Z,1096.9600
2024-01-31T00:36:29.692Z,1088.0200
2024-01-31T00:36:40.753Z,1092.4709
2024-01-31T00:36:51.780Z,1088.9070
2024-01-31T00:37:02.916Z,1088.0200
2024-01-31T00:37:14.060Z,1089.7960
2024-01-31T00:37:25.204Z,1083.6040
2024-01-31T00:37:36.302Z,1084.4840
2024-01-31T00:37:47.374Z,1089.7960
2024-01-31T00:37:58.423Z,1086.2490
2024-01-31T00:38:09.483Z,1082.7250
2024-01-31T00:38:20.522Z,1090.6860
2024-01-31T00:38:31.602Z,1076.6130
2024-01-31T00:38:42.656Z,1090.6860
2024-01-31T00:38:53.710Z,1087.1340
2024-01-31T00:39:04.780Z,1086.2490
2024-01-31T00:39:15.845Z,1078.3521
2024-01-31T00:39:26.894Z,1089.7960
2024-01-31T00:39:37.957Z,1085.3660
2024-01-31T00:39:49.021Z,1088.0200
2024-01-31T00:40:00.201Z,1085.3660
2024-01-31T00:40:11.729Z,1081.8480
2024-01-31T00:40:23.011Z,1085.3660
2024-01-31T00:40:34.157Z,1087.1340
2024-01-31T00:40:45.206Z,1081.8480
2024-01-31T00:40:56.284Z,1088.0200
2024-01-31T00:41:07.368Z,1077.4821
2024-01-31T00:41:18.420Z,1085.3660
2024-01-31T00:41:29.469Z,1088.9070
2024-01-31T00:41:40.532Z,1085.3660
2024-01-31T00:41:51.661Z,1089.7960
2024-01-31T00:42:02.724Z,1083.6040
2024-01-31T00:42:13.778Z,1084.4840
2024-01-31T00:42:24.852Z,1084.4840
2024-01-31T00:42:35.869Z,1081.8480
2024-01-31T00:42:46.948Z,1087.1340
2024-01-31T00:42:58.043Z,1078.3521
2024-01-31T00:43:09.187Z,1080.0970
2024-01-31T00:43:20.345Z,1088.9070
2024-01-31T00:43:31.527Z,1081.8480
2024-01-31T00:43:42.601Z,1084.4840
2024-01-31T00:43:53.667Z,1078.3521
2024-01-31T00:44:04.706Z,1082.7250
2024-01-31T00:44:15.736Z,1083.6040
2024-01-31T00:44:26.797Z,1081.8480
2024-01-31T00:44:37.848Z,1084.4840
2024-01-31T00:44:48.903Z,1085.3660
2024-01-31T00:44:59.976Z,1077.4821
2024-01-31T00:45:11.126Z,1083.6040
2024-01-31T00:45:22.169Z,1082.7250
2024-01-31T00:45:33.301Z,1078.3521
2024-01-31T00:45:44.322Z,1078.3521
2024-01-31T00:45:55.473Z,1071.4290
2024-01-31T00:46:06.623Z,1080.0970
2024-01-31T00:46:17.814Z,1076.6130
2024-01-31T00:46:28.973Z,1081.8480
2024-01-31T00:46:40.227Z,1081.8480
2024-01-31T00:46:51.360Z,1084.4840
2024-01-31T00:47:02.531Z,1080.9720
2024-01-31T00:49:09.329Z,1077.4821
2024-01-31T00:49:09.329Z,1036.4910
2024-01-31T00:49:09.329Z,992.5650
2024-01-31T00:49:25.288Z,1011.3640
2024-01-31T00:49:37.436Z,1010.5980
2024-01-31T00:49:48.619Z,1012.8980
2024-01-31T00:49:59.731Z,1022.2050
2024-01-31T00:50:11.010Z,1021.4230
2024-01-31T00:50:22.096Z,1023.7730
2024-01-31T00:50:33.110Z,1022.2050
2024-01-31T00:50:44.220Z,1028.5050
2024-01-31T00:50:55.415Z,1033.2820
2024-01-31T00:51:06.636Z,1034.8840
2024-01-31T00:51:17.829Z,1034.0820
2024-01-31T00:51:29.021Z,1026.9230
2024-01-31T00:51:40.205Z,1034.0820
2024-01-31T00:51:51.420Z,1041.3420
2024-01-31T00:52:02.644Z,1034.8840
2024-01-31T00:52:13.833Z,1034.0820
2024-01-31T00:52:24.938Z,1032.4830
2024-01-31T00:52:36.078Z,1043.7841
2024-01-31T00:52:47.318Z,1041.3420
2024-01-31T00:52:58.375Z,1034.0820
2024-01-31T00:53:09.462Z,1038.9110
2024-01-31T00:53:20.677Z,1042.9690
2024-01-31T00:53:31.898Z,1039.7200
2024-01-31T00:53:43.094Z,1042.9690
2024-01-31T00:53:54.300Z,1044.6010
2024-01-31T00:54:05.494Z,1039.7200
2024-01-31T00:54:16.734Z,1048.7040
2024-01-31T00:54:27.795Z,1037.2960
2024-01-31T00:54:38.850Z,1042.9690
2024-01-31T00:54:49.910Z,1046.2380
2024-01-31T00:55:00.979Z,1046.2380
2024-01-31T00:55:12.107Z,1050.3540
2024-01-31T00:55:23.232Z,1054.5020
2024-01-31T00:55:34.329Z,1048.7040
2024-01-31T00:55:45.409Z,1042.9690
2024-01-31T00:55:56.470Z,1047.8810
2024-01-31T00:56:07.557Z,1049.5280
2024-01-31T00:56:18.597Z,1047.8810
2024-01-31T00:56:29.660Z,1051.1810
2024-01-31T00:56:40.724Z,1050.3540
2024-01-31T00:56:51.800Z,1054.5020
2024-01-31T00:57:02.837Z,1051.1810
2024-01-31T00:57:13.910Z,1049.5280
2024-01-31T00:57:24.980Z,1048.7040
2024-01-31T00:57:36.044Z,1053.6700
2024-01-31T00:57:47.099Z,1049.5280
2024-01-31T00:57:58.183Z,1049.5280
2024-01-31T00:58:09.304Z,1044.6010
2024-01-31T00:58:20.382Z,1046.2380
2024-01-31T00:58:31.448Z,1054.5020
2024-01-31T00:58:42.542Z,1052.8390
2024-01-31T00:58:53.641Z,1046.2380
2024-01-31T00:59:04.678Z,1057.0070
2024-01-31T00:59:15.782Z,1052.8390
2024-01-31T00:59:26.939Z,1053.6700
2024-01-31T00:59:38.007Z,1050.3540
2024-01-31T00:59:49.063Z,1054.5020
2024-01-31T01:00:00.161Z,1053.6700
2024-01-31T01:00:11.255Z,1057.0070
2024-01-31T01:00:22.296Z,1055.3361
2024-01-31T01:00:33.343Z,1056.1710
2024-01-31T01:00:44.429Z,1050.3540
2024-01-31T01:00:55.535Z,1055.3361
2024-01-31T01:01:06.773Z,1054.5020
2024-01-31T01:01:17.913Z,1046.2380
2024-01-31T01:01:29.024Z,1055.3361
2024-01-31T01:01:40.171Z,1054.5020
2024-01-31T01:01:51.367Z,1056.1710
2024-01-31T01:02:02.521Z,1057.8450
2024-01-31T01:02:13.601Z,1055.3361
2024-01-31T01:02:24.647Z,1058.6840
2024-01-31T01:02:35.698Z,1055.3361
2024-01-31T01:02:46.764Z,1055.3361
2024-01-31T01:02:57.835Z,1057.8450
2024-01-31T01:03:08.898Z,1052.8390
2024-01-31T01:03:19.989Z,1049.5280
2024-01-31T01:03:31.082Z,1057.8450
2024-01-31T01:03:42.190Z,1059.5240
2024-01-31T01:03:53.277Z,1059.5240
2024-01-31T01:04:04.493Z,1052.8390
2024-01-31T01:04:15.830Z,1059.5240
2024-01-31T01:04:27.323Z,1057.8450
2024-01-31T01:04:38.505Z,1052.0090
2024-01-31T01:04:49.585Z,1062.8979
2024-01-31T01:05:00.919Z,1054.5020
2024-01-31T01:05:12.090Z,1063.7450
2024-01-31T01:05:23.250Z,1062.8979
2024-01-31T01:05:34.303Z,1061.2080
2024-01-31T01:05:45.357Z,1052.8390
2024-01-31T01:05:56.466Z,1059.5240
2024-01-31T01:06:07.511Z,1057.8450
2024-01-31T01:06:18.687Z,1059.5240
2024-01-31T01:06:29.793Z,1062.0530
2024-01-31T01:06:40.977Z,1059.5240
2024-01-31T01:06:52.095Z,1061.2080
2024-01-31T01:07:03.253Z,1060.3650
2024-01-31T01:07:14.372Z,1063.7450
2024-01-31T01:07:25.446Z,1059.5240
2024-01-31T01:07:36.598Z,1056.1710
2024-01-31T01:07:47.744Z,1066.2939
2024-01-31T01:07:58.782Z,1059.5240
2024-01-31T01:08:09.834Z,1059.5240
2024-01-31T01:08:20.906Z,1064.5930
2024-01-31T01:08:31.961Z,1060.3650
2024-01-31T01:08:43.004Z,1052.0090
2024-01-31T01:08:54.078Z,1052.8390
2024-01-31T01:09:05.155Z,1061.2080
2024-01-31T01:09:16.216Z,1062.0530
2024-01-31T01:09:27.257Z,1060.3650
2024-01-31T01:09:38.342Z,1061.2080
2024-01-31T01:09:49.441Z,1054.5020
2024-01-31T01:10:00.561Z,1062.0530
2024-01-31T01:10:11.679Z,1053.6700
2024-01-31T01:10:22.803Z,1063.7450
2024-01-31T01:10:33.859Z,1066.2939
2024-01-31T01:10:45.067Z,1058.6840
2024-01-31T01:10:56.136Z,1066.2939
2024-01-31T01:11:07.205Z,1065.4430
2024-01-31T01:11:18.264Z,1060.3650
2024-01-31T01:11:29.301Z,1061.2080
2024-01-31T01:11:40.350Z,1061.2080
2024-01-31T01:11:51.384Z,1062.0530
2024-01-31T01:12:02.439Z,1058.6840
2024-01-31T01:12:13.481Z,1061.2080
2024-01-31T01:12:24.619Z,1061.2080
2024-01-31T01:12:35.681Z,1072.2889
2024-01-31T01:12:46.724Z,1060.3650
2024-01-31T01:12:57.797Z,1059.5240
2024-01-31T01:13:08.856Z,1061.2080
2024-01-31T01:13:19.969Z,1059.5240
2024-01-31T01:13:30.996Z,1062.0530
2024-01-31T01:13:42.111Z,1065.4430
2024-01-31T01:13:53.178Z,1062.8979
2024-01-31T01:14:04.234Z,1058.6840
2024-01-31T01:14:17.262Z,1056.1710
2024-01-31T01:14:29.805Z,1062.8979
2024-01-31T01:14:40.895Z,1062.0530
2024-01-31T01:14:56.544Z,1065.4430
2024-01-31T01:15:15.360Z,1058.6840
2024-01-31T01:15:25.783Z,1055.3361
2024-01-31T01:15:36.845Z,1051.1810
2024-01-31T01:15:47.889Z,1056.1710
2024-01-31T01:15:58.963Z,1052.8390
2024-01-31T01:16:10.077Z,1056.1710
2024-01-31T01:16:21.191Z,1057.8450
2024-01-31T01:16:32.284Z,1054.5020
2024-01-31T01:16:43.385Z,1052.0090
2024-01-31T01:16:54.436Z,1058.6840
2024-01-31T01:17:05.486Z,1056.1710
2024-01-31T01:17:16.503Z,1061.2080
2024-01-31T01:17:27.558Z,1057.0070
2024-01-31T01:17:38.624Z,1058.6840
2024-01-31T01:17:49.695Z,1051.1810
2024-01-31T01:18:00.804Z,1062.8979
2024-01-31T01:18:11.965Z,1058.6840
2024-01-31T01:18:23.034Z,1057.8450
2024-01-31T01:18:34.069Z,1061.2080
2024-01-31T01:18:45.133Z,1062.0530
2024-01-31T01:18:56.209Z,1056.1710
2024-01-31T01:19:07.330Z,1055.3361
2024-01-31T01:19:18.432Z,1056.1710
2024-01-31T01:19:29.611Z,1063.7450
2024-01-31T01:19:40.810Z,1057.8450
2024-01-31T01:19:52.061Z,1063.7450
2024-01-31T01:20:03.362Z,1062.8979
2024-01-31T01:20:14.477Z,1065.4430
2024-01-31T01:20:25.559Z,1060.3650
2024-01-31T01:20:36.681Z,1062.8979
2024-01-31T01:20:47.912Z,1058.6840
2024-01-31T01:20:59.024Z,1061.2080
2024-01-31T01:21:10.073Z,1052.8390
2024-01-31T01:21:21.136Z,1066.2939
2024-01-31T01:21:32.193Z,1062.8979
2024-01-31T01:21:43.247Z,1064.5930
2024-01-31T01:21:54.289Z,1065.4430
2024-01-31T01:22:05.378Z,1063.7450
2024-01-31T01:22:16.427Z,1059.5240
2024-01-31T01:22:27.487Z,1061.2080
2024-01-31T01:22:38.700Z,1056.1710
2024-01-31T01:22:49.750Z,1066.2939
2024-01-31T01:23:00.815Z,1056.1710
2024-01-31T01:23:11.880Z,1064.5930
2024-01-31T01:23:22.911Z,1064.5930
2024-01-31T01:23:33.968Z,1062.8979
2024-01-31T01:23:45.010Z,1062.0530
2024-01-31T01:23:56.065Z,1062.8979
2024-01-31T01:24:07.128Z,1064.5930
2024-01-31T01:24:18.190Z,1071.4290
2024-01-31T01:24:29.215Z,1062.8979
2024-01-31T01:24:40.256Z,1059.5240
2024-01-31T01:24:51.313Z,1064.5930
2024-01-31T01:25:02.503Z,1068.8550
2024-01-31T01:25:13.655Z,1058.6840
2024-01-31T01:25:24.790Z,1068.8550
2024-01-31T01:25:35.923Z,1068.8550
2024-01-31T01:25:47.017Z,1069.7120
2024-01-31T01:25:58.062Z,1068.8550
2024-01-31T01:26:09.103Z,1068.8550
2024-01-31T01:26:20.156Z,1068.0000
2024-01-31T01:26:31.206Z,1072.2889
2024-01-31T01:26:42.300Z,1069.7120
2024-01-31T01:26:53.350Z,1073.1510
2024-01-31T01:27:04.414Z,1071.4290
2024-01-31T01:27:15.475Z,1078.3521
2024-01-31T01:27:26.527Z,1074.8790
2024-01-31T01:27:37.588Z,1069.7120
2024-01-31T01:27:48.653Z,1069.7120
2024-01-31T01:27:59.774Z,1065.4430
2024-01-31T01:28:10.889Z,1071.4290
2024-01-31T01:28:22.029Z,1062.8979
2024-01-31T01:28:33.096Z,1073.1510
2024-01-31T01:28:44.158Z,1076.6130
2024-01-31T01:28:55.259Z,1066.2939
2024-01-31T01:29:06.339Z,1066.2939
2024-01-31T01:29:17.406Z,1074.0140
2024-01-31T01:29:28.470Z,1075.7450
2024-01-31T01:29:39.527Z,1074.0140
2024-01-31T01:29:50.597Z,1072.2889
2024-01-31T01:30:01.645Z,1077.4821
2024-01-31T01:30:12.728Z,1076.6130
2024-01-31T01:30:23.868Z,1076.6130
2024-01-31T01:30:34.928Z,1077.4821
2024-01-31T01:30:45.982Z,1078.3521
2024-01-31T01:30:57.098Z,1073.1510
2024-01-31T01:31:08.308Z,1082.7250
2024-01-31T01:31:19.492Z,1073.1510
2024-01-31T01:31:30.605Z,1080.9720
2024-01-31T01:31:41.959Z,1078.3521
2024-01-31T01:31:53.537Z,1080.0970
2024-01-31T01:32:04.873Z,1081.8480
2024-01-31T01:32:15.904Z,1077.4821
2024-01-31T01:32:26.952Z,1078.3521
2024-01-31T01:32:38.144Z,1078.3521
2024-01-31T01:32:49.267Z,1074.0140
2024-01-31T01:33:00.356Z,1081.8480
2024-01-31T01:33:11.449Z,1080.0970
2024-01-31T01:33:22.644Z,1081.8480
2024-01-31T01:33:33.840Z,1077.4821
2024-01-31T01:33:45.008Z,1076.6130
2024-01-31T01:33:56.130Z,1085.3660
2024-01-31T01:34:07.217Z,1081.8480
2024-01-31T01:34:18.389Z,1084.4840
2024-01-31T01:34:29.594Z,1090.6860
2024-01-31T01:34:40.802Z,1080.9720
2024-01-31T01:34:52.009Z,1083.6040
2024-01-31T01:35:03.111Z,1079.2240
2024-01-31T01:35:14.326Z,1083.6040
2024-01-31T01:35:25.349Z,1083.6040
2024-01-31T01:35:36.432Z,1078.3521
2024-01-31T01:35:47.488Z,1096.0590
2024-01-31T01:35:58.549Z,1082.7250
2024-01-31T01:36:09.609Z,1083.6040
2024-01-31T01:36:20.665Z,1085.3660
2024-01-31T01:36:31.774Z,1084.4840
2024-01-31T01:36:42.807Z,1077.4821
2024-01-31T01:36:53.875Z,1086.2490
2024-01-31T01:37:04.968Z,1089.7960
2024-01-31T01:37:16.075Z,1085.3660
2024-01-31T01:37:27.156Z,1083.6040
2024-01-31T01:37:38.271Z,1080.9720
2024-01-31T01:37:49.947Z,1082.7250
2024-01-31T01:38:01.070Z,1088.0200
2024-01-31T01:38:12.110Z,1087.1340
2024-01-31T01:38:23.163Z,1085.3660
2024-01-31T01:38:34.234Z,1083.6040
2024-01-31T01:38:45.288Z,1085.3660
2024-01-31T01:38:56.368Z,1088.0200
2024-01-31T01:39:08.675Z,1091.5780
2024-01-31T01:39:20.852Z,1087.1340
2024-01-31T01:39:31.895Z,1089.7960
2024-01-31T01:39:42.959Z,1085.3660
2024-01-31T01:39:54.017Z,1091.5780
2024-01-31T01:40:05.106Z,1088.9070
2024-01-31T01:40:16.188Z,1087.1340
2024-01-31T01:40:27.302Z,1081.8480
2024-01-31T01:40:38.376Z,1085.3660
2024-01-31T01:40:49.536Z,1094.2620
2024-01-31T01:41:00.680Z,1097.8621
2024-01-31T01:41:11.706Z,1095.1600
2024-01-31T01:41:22.761Z,1090.6860
2024-01-31T01:41:33.806Z,1091.5780
2024-01-31T01:41:44.868Z,1095.1600
2024-01-31T01:41:55.939Z,1093.3660
2024-01-31T01:42:07.005Z,1092.4709
2024-01-31T01:42:18.090Z,1088.9070
2024-01-31T01:42:29.163Z,1096.0590
2024-01-31T01:42:40.232Z,1096.0590
2024-01-31T01:42:51.260Z,1092.4709
2024-01-31T01:43:02.365Z,1092.4709
2024-01-31T01:43:13.485Z,1095.1600
2024-01-31T01:43:24.625Z,1091.5780
2024-01-31T01:43:35.791Z,1096.9600
2024-01-31T01:43:46.935Z,1097.8621
2024-01-31T01:43:57.987Z,1097.8621
2024-01-31T01:44:09.045Z,1096.9600
2024-01-31T01:44:20.103Z,1093.3660
2024-01-31T01:44:31.163Z,1098.7650
2024-01-31T01:44:42.216Z,1099.6710
2024-01-31T01:44:53.261Z,1095.1600
2024-01-31T01:45:04.310Z,1096.0590
2024-01-31T01:45:15.372Z,1104.2180
2024-01-31T01:45:26.458Z,1099.6710
2024-01-31T01:45:37.488Z,1096.0590
2024-01-31T01:45:48.509Z,1090.6860
2024-01-31T01:45:59.634Z,1098.7650
2024-01-31T01:46:10.728Z,1093.3660
2024-01-31T01:46:21.862Z,1101.4850
2024-01-31T01:46:32.975Z,1100.5770
2024-01-31T01:46:44.039Z,1096.0590
2024-01-31T01:46:55.068Z,1096.9600
2024-01-31T01:47:06.116Z,1097.8621
2024-01-31T01:47:17.155Z,1096.0590
2024-01-31T01:47:28.220Z,1096.0590
2024-01-31T01:47:39.278Z,1097.8621
2024-01-31T01:47:50.451Z,1097.8621
2024-01-31T01:48:01.660Z,1097.8621
2024-01-31T01:48:12.839Z,1105.1320
2024-01-31T01:48:23.918Z,1101.4850
2024-01-31T01:48:35.021Z,1095.1600
2024-01-31T01:48:46.121Z,1101.4850
2024-01-31T01:48:57.291Z,1103.3060
2024-01-31T01:49:08.414Z,1097.8621
2024-01-31T01:49:19.636Z,1104.2180
2024-01-31T01:49:30.731Z,1099.6710
2024-01-31T01:49:41.803Z,1099.6710
2024-01-31T01:49:53.038Z,1095.1600
2024-01-31T01:50:04.139Z,1099.6710
2024-01-31T01:50:15.189Z,1102.3950
2024-01-31T01:50:26.236Z,1101.4850
2024-01-31T01:50:37.315Z,1090.6860
2024-01-31T01:50:48.348Z,1090.6860
2024-01-31T01:50:59.404Z,1105.1320
2024-01-31T01:51:10.461Z,1100.5770
2024-01-31T01:51:56.860Z,1099.6710
2024-01-31T01:52:07.945Z,1071.4290
2024-01-31T01:52:19.051Z,1073.1510
2024-01-31T01:52:30.133Z,1075.7450
2024-01-31T01:52:41.268Z,1076.6130
2024-01-31T01:52:52.374Z,1078.3521
2024-01-31T01:53:03.435Z,1081.8480
2024-01-31T01:53:14.453Z,1083.6040
2024-01-31T01:53:25.535Z,1088.9070
2024-01-31T01:53:36.573Z,1087.1340
2024-01-31T01:53:50.977Z,1095.1600
2024-01-31T01:54:03.045Z,1081.8480
2024-01-31T01:54:14.108Z,1083.6040
2024-01-31T01:54:25.173Z,1082.7250
2024-01-31T01:54:36.254Z,1087.1340
2024-01-31T01:54:47.313Z,1081.8480
2024-01-31T01:54:58.402Z,1088.9070
2024-01-31T01:55:09.613Z,1085.3660
2024-01-31T01:55:20.766Z,1093.3660
2024-01-31T01:55:31.928Z,1094.2620
2024-01-31T01:55:43.225Z,1085.3660
2024-01-31T01:55:54.418Z,1091.5780
2024-01-31T01:56:05.469Z,1091.5780
2024-01-31T01:56:16.516Z,1089.7960
2024-01-31T01:56:27.567Z,1083.6040
2024-01-31T01:56:38.628Z,1089.7960
2024-01-31T01:56:49.688Z,1088.0200
2024-01-31T01:57:00.709Z,1090.6860
2024-01-31T01:57:11.758Z,1081.8480
2024-01-31T01:57:22.793Z,1093.3660
2024-01-31T01:57:33.843Z,1091.5780
2024-01-31T01:57:44.876Z,1094.2620
2024-01-31T01:57:55.961Z,1094.2620
2024-01-31T01:58:07.057Z,1096.9600
2024-01-31T01:58:18.153Z,1092.4709
2024-01-31T01:58:29.209Z,1095.1600
2024-01-31T01:58:40.261Z,1096.0590
2024-01-31T01:58:51.290Z,1092.4709
2024-01-31T01:59:02.353Z,1096.0590
2024-01-31T01:59:13.418Z,1093.3660
2024-01-31T01:59:24.515Z,1096.0590
2024-01-31T01:59:35.755Z,1101.4850
2024-01-31T01:59:46.823Z,1092.4709
2024-01-31T01:59:57.894Z,1096.0590
2024-01-31T02:00:08.958Z,1091.5780
2024-01-31T02:00:20.008Z,1098.7650
2024-01-31T02:00:31.047Z,1101.4850
2024-01-31T02:00:42.106Z,1088.0200
2024-01-31T02:00:53.219Z,1095.1600
2024-01-31T02:01:04.345Z,1098.7650
2024-01-31T02:01:15.556Z,1096.9600
2024-01-31T02:01:27.023Z,1096.9600
2024-01-31T02:01:38.191Z,1096.0590
2024-01-31T02:01:49.323Z,1096.9600
2024-01-31T02:02:01.006Z,1099.6710
2024-01-31T02:02:12.068Z,1097.8621
2024-01-31T02:02:23.113Z,1093.3660
2024-01-31T02:02:34.153Z,1090.6860
2024-01-31T02:02:45.239Z,1101.4850
2024-01-31T02:02:56.260Z,1102.3950
2024-01-31T02:03:07.388Z,1095.1600
2024-01-31T02:03:18.413Z,1097.8621
2024-01-31T02:03:29.475Z,1105.1320
2024-01-31T02:03:40.561Z,1101.4850
2024-01-31T02:03:51.626Z,1092.4709
2024-01-31T02:04:02.730Z,1105.1320
2024-01-31T02:04:13.869Z,1104.2180
2024-01-31T02:04:24.987Z,1094.2620
2024-01-31T02:04:36.228Z,1108.8040
2024-01-31T02:04:47.670Z,1103.3060
2024-01-31T02:04:58.857Z,1105.1320
2024-01-31T02:05:10.121Z,1105.1320
2024-01-31T02:05:21.240Z,1104.2180
2024-01-31T02:05:32.398Z,1097.8621
2024-01-31T02:05:43.466Z,1098.7650
2024-01-31T02:05:54.574Z,1102.3950
2024-01-31T02:06:05.768Z,1103.3060
2024-01-31T02:06:17.264Z,1100.5770
2024-01-31T02:06:28.465Z,1106.9650
2024-01-31T02:06:39.603Z,1098.7650
2024-01-31T02:06:50.708Z,1111.5740
2024-01-31T02:07:01.867Z,1099.6710
2024-01-31T02:07:13.031Z,1104.2180
2024-01-31T02:07:24.175Z,1107.8840
2024-01-31T02:07:35.346Z,1106.9650
2024-01-31T02:07:46.397Z,1099.6710
2024-01-31T02:07:57.528Z,1106.9650
2024-01-31T02:08:08.761Z,1110.6490
2024-01-31T02:08:19.839Z,1114.3571
2024-01-31T02:08:30.889Z,1108.8040
2024-01-31T02:08:41.931Z,1106.9650
2024-01-31T02:08:52.995Z,1105.1320
2024-01-31T02:09:04.032Z,1109.7260
2024-01-31T02:09:15.066Z,1112.5000
2024-01-31T02:09:26.127Z,1111.5740